createdAt,value
2022-12-19T00:00:04.479Z,47.35
2022-12-19T00:02:36.644Z,47.57
2022-12-19T00:05:07.952Z,47.70
2022-12-19T00:07:38.122Z,47.73
2022-12-19T00:10:09.433Z,47.62
2022-12-19T00:12:39.501Z,47.42
2022-12-19T00:15:10.478Z,47.29
2022-12-19T00:17:40.629Z,47.27
2022-12-19T00:20:11.763Z,47.35
2022-12-19T00:22:43.615Z,47.34
2022-12-19T00:25:13.798Z,47.28
2022-12-19T00:27:44.598Z,47.42
2022-12-19T00:30:14.993Z,47.48
2022-12-19T00:32:45.614Z,47.54
2022-12-19T00:35:16.185Z,47.58
2022-12-19T00:37:49.506Z,47.65
2022-12-19T00:40:18.522Z,47.44
2022-12-19T00:42:53.558Z,47.58
2022-12-19T00:45:20.995Z,47.62
2022-12-19T00:47:51.145Z,47.75
2022-12-19T00:50:21.324Z,47.60
2022-12-19T00:52:51.415Z,47.45
2022-12-19T00:55:21.604Z,47.31
2022-12-19T00:57:51.761Z,47.26
2022-12-19T01:00:23.886Z,47.22
2022-12-19T01:02:54.279Z,47.21
2022-12-19T01:05:25.181Z,47.35
2022-12-19T01:07:55.702Z,47.36
2022-12-19T01:10:25.876Z,47.33
2022-12-19T01:12:55.954Z,47.45
2022-12-19T01:15:26.172Z,47.36
2022-12-19T01:17:56.302Z,47.38
2022-12-19T01:20:29.796Z,47.40
2022-12-19T01:23:00.243Z,47.52
2022-12-19T01:25:31.435Z,47.67
2022-12-19T01:28:01.564Z,47.68
2022-12-19T01:30:31.995Z,47.68
2022-12-19T01:33:02.941Z,47.61
2022-12-19T01:35:33.036Z,47.55
2022-12-19T01:38:07.826Z,47.52
2022-12-19T01:40:35.932Z,47.58
2022-12-19T01:43:06.576Z,47.68
2022-12-19T01:45:45.114Z,47.77
2022-12-19T01:48:36.842Z,47.88
2022-12-19T01:51:10.131Z,47.81
2022-12-19T01:53:48.702Z,47.76
2022-12-19T01:56:15.854Z,47.67
2022-12-19T01:58:48.747Z,47.56
2022-12-19T02:01:20.230Z,47.53
2022-12-19T02:03:51.828Z,47.68
2022-12-19T02:06:23.402Z,47.77
2022-12-19T02:08:54.438Z,47.72
2022-12-19T02:11:24.813Z,47.81
2022-12-19T02:13:55.502Z,47.74
2022-12-19T02:16:31.843Z,47.78
2022-12-19T02:19:21.819Z,47.79
2022-12-19T02:21:57.814Z,47.78
2022-12-19T02:24:36.524Z,47.80
2022-12-19T02:27:26.321Z,47.73
2022-12-19T02:30:11.925Z,47.70
2022-12-19T02:32:56.879Z,47.66
2022-12-19T02:35:33.214Z,47.57
2022-12-19T02:38:15.515Z,47.54
2022-12-19T02:41:07.044Z,47.45
2022-12-19T02:43:40.329Z,47.60
2022-12-19T02:46:12.349Z,47.68
2022-12-19T02:48:43.118Z,47.68
2022-12-19T02:51:13.249Z,47.69
2022-12-19T02:53:44.133Z,47.70
2022-12-19T02:56:17.459Z,47.70
2022-12-19T02:59:11.750Z,47.67
2022-12-19T03:01:54.292Z,47.68
2022-12-19T03:04:36.539Z,47.74
2022-12-19T03:07:44.537Z,47.80
2022-12-19T03:10:26.798Z,47.80
2022-12-19T03:13:05.641Z,47.90
2022-12-19T03:15:36.818Z,47.89
2022-12-19T03:18:07.455Z,47.79
2022-12-19T03:20:57.891Z,47.75
2022-12-19T03:23:30.072Z,47.74
2022-12-19T03:26:08.875Z,47.82
2022-12-19T03:28:50.811Z,47.80
2022-12-19T03:31:26.862Z,47.81
2022-12-19T03:34:00.368Z,47.83
2022-12-19T03:36:33.544Z,47.79
2022-12-19T03:39:06.650Z,47.75
2022-12-19T03:41:57.997Z,47.65
2022-12-19T03:44:31.231Z,47.58
2022-12-19T03:47:10.434Z,47.54
2022-12-19T03:49:41.596Z,47.47
2022-12-19T03:52:27.216Z,47.48
2022-12-19T03:55:15.655Z,47.46
2022-12-19T03:57:49.002Z,47.48
2022-12-19T04:00:21.430Z,47.47
2022-12-19T04:02:54.631Z,47.49
2022-12-19T04:05:29.755Z,47.46
2022-12-19T04:08:05.599Z,47.46
2022-12-19T04:10:38.935Z,47.35
2022-12-19T04:13:12.256Z,47.30
2022-12-19T04:15:48.531Z,47.13
2022-12-19T04:18:21.202Z,47.18
2022-12-19T04:20:54.331Z,47.21
2022-12-19T04:23:42.815Z,47.28
2022-12-19T04:26:14.777Z,47.17
2022-12-19T04:28:50.910Z,47.18
2022-12-19T04:31:22.174Z,47.18
2022-12-19T04:33:52.493Z,47.31
2022-12-19T04:36:22.970Z,47.17
2022-12-19T04:38:53.708Z,46.89
2022-12-19T04:41:24.067Z,46.79
2022-12-19T04:43:54.245Z,46.79
2022-12-19T04:46:24.433Z,46.80
2022-12-19T04:48:54.681Z,46.96
2022-12-19T04:51:25.098Z,47.00
2022-12-19T04:53:55.249Z,47.02
2022-12-19T04:56:25.469Z,46.97
2022-12-19T04:59:00.746Z,46.84
2022-12-19T05:01:31.303Z,46.41
2022-12-19T05:04:04.633Z,45.99
2022-12-19T05:06:33.759Z,45.76
2022-12-19T05:09:04.041Z,45.83
2022-12-19T05:11:34.438Z,45.82
2022-12-19T05:14:04.880Z,45.95
2022-12-19T05:16:35.089Z,45.90
2022-12-19T05:19:05.527Z,46.01
2022-12-19T05:21:35.725Z,45.91
2022-12-19T05:24:06.562Z,45.70
2022-12-19T05:26:37.507Z,45.76
2022-12-19T05:29:08.736Z,45.95
2022-12-19T05:31:38.942Z,46.01
2022-12-19T05:34:09.263Z,46.11
2022-12-19T05:36:39.451Z,46.07
2022-12-19T05:39:09.589Z,45.77
2022-12-19T05:41:39.791Z,45.70
2022-12-19T05:44:11.554Z,45.67
2022-12-19T05:46:42.059Z,45.82
2022-12-19T05:49:12.404Z,45.69
2022-12-19T05:51:42.695Z,45.60
2022-12-19T05:54:12.936Z,45.71
2022-12-19T05:56:43.068Z,45.79
2022-12-19T05:59:13.558Z,45.80
2022-12-19T06:01:44.024Z,45.81
2022-12-19T06:04:14.309Z,45.98
2022-12-19T06:06:44.725Z,46.04
2022-12-19T06:09:14.929Z,46.07
2022-12-19T06:11:45.150Z,46.20
2022-12-19T06:14:15.448Z,46.28
2022-12-19T06:16:45.759Z,46.39
2022-12-19T06:19:16.407Z,46.38
2022-12-19T06:21:48.493Z,46.22
2022-12-19T06:24:18.700Z,46.30
2022-12-19T06:26:48.901Z,46.29
2022-12-19T06:29:19.183Z,46.20
2022-12-19T06:31:49.527Z,46.16
2022-12-19T06:34:39.842Z,46.15
2022-12-19T06:36:52.140Z,46.20
2022-12-19T06:39:22.756Z,46.43
2022-12-19T06:42:10.732Z,45.94
2022-12-19T06:44:41.074Z,40.26
2022-12-19T06:47:11.323Z,38.00
2022-12-19T06:49:41.700Z,38.37
2022-12-19T06:52:11.914Z,38.60
2022-12-19T06:54:42.598Z,39.57
2022-12-19T06:57:13.037Z,39.52
2022-12-19T06:59:43.494Z,42.58
2022-12-19T07:02:19.682Z,45.56
2022-12-19T07:04:55.792Z,46.59
2022-12-19T07:07:25.972Z,46.71
2022-12-19T07:09:56.226Z,46.59
2022-12-19T07:12:26.799Z,46.47
2022-12-19T07:14:57.084Z,45.73
2022-12-19T07:17:29.421Z,44.76
2022-12-19T07:20:00.198Z,43.68
2022-12-19T07:22:33.435Z,42.58
2022-12-19T07:25:06.239Z,41.58
2022-12-19T07:27:37.262Z,40.54
2022-12-19T07:30:08.784Z,39.66
2022-12-19T07:32:39.642Z,38.72
2022-12-19T07:35:10.917Z,37.75
2022-12-19T07:37:40.995Z,37.08
2022-12-19T07:40:14.482Z,36.73
2022-12-19T07:42:45.397Z,37.18
2022-12-19T07:45:15.718Z,37.36
2022-12-19T07:47:45.953Z,37.90
2022-12-19T07:50:16.331Z,38.58
2022-12-19T07:52:46.944Z,39.06
2022-12-19T07:55:17.407Z,39.21
2022-12-19T07:57:47.637Z,39.17
2022-12-19T08:00:18.463Z,38.80
2022-12-19T08:02:48.835Z,38.71
2022-12-19T08:05:19.719Z,38.67
2022-12-19T08:07:49.878Z,38.42
2022-12-19T08:10:22.309Z,38.72
2022-12-19T08:12:52.966Z,39.39
2022-12-19T08:15:23.117Z,39.54
2022-12-19T08:17:54.873Z,39.27
2022-12-19T08:20:25.283Z,39.27
2022-12-19T08:22:55.419Z,39.01
2022-12-19T08:25:25.780Z,39.00
2022-12-19T08:27:55.935Z,39.13
2022-12-19T08:30:26.133Z,39.40
2022-12-19T08:32:56.473Z,38.33
2022-12-19T08:35:26.714Z,33.00
2022-12-19T08:37:56.870Z,31.88
2022-12-19T08:40:27.168Z,33.11
2022-12-19T08:42:57.461Z,34.33
2022-12-19T08:45:27.617Z,34.73
2022-12-19T08:47:57.850Z,34.44
2022-12-19T08:50:28.352Z,34.56
2022-12-19T08:52:58.509Z,34.38
2022-12-19T08:55:29.035Z,34.37
2022-12-19T08:57:59.213Z,34.27
2022-12-19T09:00:31.361Z,34.07
2022-12-19T09:03:01.885Z,33.85
2022-12-19T09:06:01.422Z,33.94
2022-12-19T09:08:04.895Z,33.63
2022-12-19T09:10:39.838Z,33.27
2022-12-19T09:13:10.031Z,33.36
2022-12-19T09:15:41.137Z,33.10
2022-12-19T09:18:12.509Z,32.66
2022-12-19T09:20:43.103Z,32.50
2022-12-19T09:23:13.387Z,32.34
2022-12-19T09:25:43.625Z,32.06
2022-12-19T09:28:29.494Z,31.94
2022-12-19T09:30:46.747Z,31.67
2022-12-19T09:33:19.869Z,31.67
2022-12-19T09:35:56.633Z,31.48
2022-12-19T09:38:27.589Z,31.27
2022-12-19T09:41:00.820Z,31.12
2022-12-19T09:43:39.618Z,31.02
2022-12-19T09:46:18.292Z,32.10
2022-12-19T09:48:55.003Z,34.61
2022-12-19T09:51:52.286Z,34.65
2022-12-19T09:54:25.434Z,34.12
2022-12-19T09:56:58.773Z,33.36
2022-12-19T09:59:49.878Z,32.85
2022-12-19T10:02:23.429Z,32.51
2022-12-19T10:05:07.729Z,32.24
2022-12-19T10:07:56.331Z,32.10
2022-12-19T10:12:34.743Z,31.95
2022-12-19T10:12:55.826Z,31.85
2022-12-19T10:15:39.344Z,31.80
2022-12-19T10:18:28.209Z,31.80
2022-12-19T10:21:05.271Z,31.81
2022-12-19T10:24:00.828Z,31.78
2022-12-19T10:26:37.118Z,31.86
2022-12-19T10:29:19.161Z,31.86
2022-12-19T10:32:13.142Z,31.84
2022-12-19T10:34:45.448Z,31.84
2022-12-19T10:37:35.090Z,31.86
2022-12-19T10:40:17.617Z,31.92
2022-12-19T10:42:51.732Z,31.94
2022-12-19T10:45:24.177Z,32.03
2022-12-19T10:47:58.887Z,32.11
2022-12-19T10:50:30.843Z,32.20
2022-12-19T10:53:11.360Z,32.27
2022-12-19T10:55:50.187Z,32.25
2022-12-19T10:58:26.430Z,32.25
2022-12-19T11:01:05.579Z,32.20
2022-12-19T11:03:36.972Z,32.23
2022-12-19T11:06:07.757Z,32.19
2022-12-19T11:08:38.545Z,32.07
2022-12-19T11:14:49.904Z,31.91
2022-12-19T11:19:15.086Z,31.79
2022-12-19T11:20:38.164Z,31.61
2022-12-19T11:29:18.921Z,32.21
2022-12-19T11:29:19.697Z,34.83
2022-12-19T11:30:42.811Z,35.62
2022-12-19T11:30:46.260Z,35.61
2022-12-19T11:32:36.480Z,30.38
2022-12-19T11:34:36.213Z,27.65
2022-12-19T11:37:27.831Z,27.37
2022-12-19T11:40:28.359Z,27.78
2022-12-19T11:43:43.066Z,27.28
2022-12-19T11:46:05.357Z,27.46
2022-12-19T11:49:08.387Z,27.24
2022-12-19T11:51:59.382Z,27.19
2022-12-19T11:54:35.656Z,26.95
2022-12-19T11:57:05.247Z,26.71
2022-12-19T11:59:41.071Z,26.57
2022-12-19T12:02:45.886Z,26.32
2022-12-19T12:05:41.595Z,25.87
2022-12-19T12:09:36.084Z,25.66
2022-12-19T12:15:09.349Z,25.38
2022-12-19T12:22:48.692Z,24.94
2022-12-19T12:26:11.528Z,24.20
2022-12-19T12:31:15.837Z,23.40
2022-12-19T12:31:27.785Z,23.83
2022-12-19T12:31:46.586Z,22.25
2022-12-19T12:31:46.813Z,22.69
2022-12-19T12:31:54.266Z,22.71
2022-12-19T12:35:54.535Z,22.59
2022-12-19T12:38:29.856Z,22.80
2022-12-19T12:41:20.411Z,22.72
2022-12-19T12:43:54.494Z,22.75
2022-12-19T12:46:42.451Z,22.75
2022-12-19T12:49:36.386Z,22.78
2022-12-19T12:52:09.491Z,19.19
2022-12-19T12:54:42.778Z,19.29
2022-12-19T12:57:30.204Z,20.38
2022-12-19T13:00:20.352Z,25.32
2022-12-19T13:03:13.600Z,29.08
2022-12-19T13:06:07.708Z,29.74
2022-12-19T13:08:46.439Z,29.41
2022-12-19T13:11:40.608Z,29.02
2022-12-19T13:14:38.248Z,28.78
2022-12-19T13:17:14.126Z,28.75
2022-12-19T13:20:04.768Z,28.78
2022-12-19T13:22:40.862Z,28.95
2022-12-19T13:25:30.754Z,29.32
2022-12-19T13:28:10.739Z,29.49
2022-12-19T13:31:20.835Z,29.95
2022-12-19T13:33:55.995Z,30.53
2022-12-19T13:39:49.599Z,30.77
2022-12-19T13:39:58.317Z,30.78
2022-12-19T13:42:33.579Z,30.64
2022-12-19T13:45:12.511Z,30.62
2022-12-19T13:47:45.976Z,30.67
2022-12-19T13:50:25.079Z,30.78
2022-12-19T13:52:55.414Z,30.84
2022-12-19T13:55:27.823Z,30.97
2022-12-19T13:57:58.848Z,31.10
2022-12-19T14:00:40.960Z,31.36
2022-12-19T14:03:14.327Z,31.51
2022-12-19T14:06:18.586Z,31.76
2022-12-19T14:08:23.088Z,32.03
2022-12-19T14:11:30.666Z,32.35
2022-12-19T14:14:16.352Z,32.52
2022-12-19T14:16:45.132Z,32.61
2022-12-19T14:19:25.773Z,32.74
2022-12-19T14:22:05.276Z,32.90
2022-12-19T14:24:29.879Z,33.13
2022-12-19T14:28:20.908Z,33.27
2022-12-19T14:30:28.971Z,33.47
2022-12-19T14:33:40.034Z,33.59
2022-12-19T14:36:04.872Z,33.94
2022-12-19T14:38:03.032Z,34.05
2022-12-19T14:40:07.732Z,34.14
2022-12-19T14:43:57.246Z,34.42
2022-12-19T14:54:10.726Z,36.16
2022-12-19T14:54:15.602Z,37.75
2022-12-19T14:54:21.095Z,38.30
2022-12-19T14:55:18.567Z,39.36
2022-12-19T14:57:01.759Z,40.56
2022-12-19T14:59:37.759Z,40.37
2022-12-19T15:02:11.368Z,40.17
2022-12-19T15:04:53.434Z,39.69
2022-12-19T15:07:22.194Z,39.38
2022-12-19T15:11:03.774Z,39.22
2022-12-19T15:16:34.777Z,38.93
2022-12-19T15:19:07.998Z,38.73
2022-12-19T15:21:38.135Z,38.73
2022-12-19T15:24:09.422Z,38.73
2022-12-19T15:26:42.543Z,38.84
2022-12-19T15:29:19.811Z,38.88
2022-12-19T15:31:47.068Z,38.82
2022-12-19T15:34:35.512Z,38.78
2022-12-19T15:36:58.876Z,38.77
2022-12-19T15:39:30.986Z,38.75
2022-12-19T15:42:02.633Z,38.85
2022-12-19T15:44:43.263Z,38.94
2022-12-19T15:47:34.993Z,38.95
2022-12-19T15:50:17.368Z,39.00
2022-12-19T15:52:48.011Z,38.94
2022-12-19T15:55:19.875Z,38.98
2022-12-19T15:57:55.835Z,39.11
2022-12-19T16:00:29.089Z,39.16
2022-12-19T16:05:31.729Z,39.14
2022-12-19T16:08:01.924Z,39.00
2022-12-19T16:10:35.224Z,39.00
2022-12-19T16:13:05.528Z,39.30
2022-12-19T16:15:40.773Z,40.68
2022-12-19T16:18:14.135Z,41.42
2022-12-19T16:20:44.705Z,41.89
2022-12-19T16:23:17.490Z,42.46
2022-12-19T16:25:53.683Z,43.12
2022-12-19T16:28:34.192Z,44.02
2022-12-19T16:31:07.526Z,44.94
2022-12-19T16:33:37.848Z,45.94
2022-12-19T16:36:09.651Z,46.65
2022-12-19T16:38:39.896Z,47.46
2022-12-19T16:41:18.821Z,48.23
2022-12-19T16:43:49.202Z,48.62
2022-12-19T16:46:22.255Z,49.12
2022-12-19T16:48:52.775Z,49.76
2022-12-19T16:51:25.931Z,49.96
2022-12-19T16:53:59.845Z,49.64
2022-12-19T16:56:35.819Z,49.14
2022-12-19T16:59:09.642Z,48.18
2022-12-19T17:01:40.531Z,47.33
2022-12-19T17:04:13.991Z,46.46
2022-12-19T17:06:44.620Z,45.81
2022-12-19T17:09:19.941Z,45.11
2022-12-19T17:11:53.158Z,44.63
2022-12-19T17:14:26.265Z,44.17
2022-12-19T17:17:00.787Z,43.74
2022-12-19T17:19:37.183Z,43.44
2022-12-19T17:22:15.452Z,43.07
2022-12-19T17:24:47.908Z,43.05
2022-12-19T17:27:19.367Z,43.23
2022-12-19T17:29:49.577Z,43.27
2022-12-19T17:32:24.195Z,43.46
2022-12-19T17:34:53.019Z,43.19
2022-12-19T17:37:23.450Z,42.93
2022-12-19T17:39:54.950Z,42.70
2022-12-19T17:42:27.911Z,42.49
2022-12-19T17:44:58.582Z,42.16
2022-12-19T17:47:30.370Z,41.74
2022-12-19T17:50:00.958Z,41.60
2022-12-19T17:52:34.201Z,41.47
2022-12-19T17:55:17.048Z,41.36
2022-12-19T17:57:47.362Z,41.14
2022-12-19T18:00:22.841Z,41.03
2022-12-19T18:02:57.640Z,40.97
2022-12-19T18:05:31.122Z,40.92
2022-12-19T18:08:01.507Z,40.81
2022-12-19T18:10:33.030Z,40.64
2022-12-19T18:13:04.409Z,40.53
2022-12-19T18:15:35.329Z,40.56
2022-12-19T18:18:05.874Z,40.35
2022-12-19T18:20:36.235Z,40.25
2022-12-19T18:23:09.371Z,40.22
2022-12-19T18:25:39.738Z,40.21
2022-12-19T18:28:09.943Z,40.25
2022-12-19T18:30:41.021Z,40.18
2022-12-19T18:33:23.268Z,40.09
2022-12-19T18:35:53.497Z,40.02
2022-12-19T18:38:25.037Z,39.95
2022-12-19T18:40:55.217Z,40.01
2022-12-19T18:43:26.032Z,39.96
2022-12-19T18:45:56.413Z,39.93
2022-12-19T18:48:29.091Z,39.89
2022-12-19T18:51:00.825Z,39.83
2022-12-19T18:53:36.028Z,39.78
2022-12-19T18:56:07.724Z,39.78
2022-12-19T18:58:38.480Z,39.71
2022-12-19T19:01:14.443Z,39.70
2022-12-19T19:03:47.611Z,39.69
2022-12-19T19:06:24.404Z,39.66
2022-12-19T19:08:56.404Z,39.67
2022-12-19T19:11:27.808Z,39.61
2022-12-19T19:13:58.021Z,39.58
2022-12-19T19:16:28.854Z,39.60
2022-12-19T19:19:01.055Z,39.55
2022-12-19T19:21:34.229Z,39.63
2022-12-19T19:24:10.637Z,39.57
2022-12-19T19:26:40.260Z,39.51
2022-12-19T19:29:11.013Z,39.30
2022-12-19T19:31:44.078Z,39.47
2022-12-19T19:34:23.179Z,39.54
2022-12-19T19:36:56.324Z,39.57
2022-12-19T19:39:27.952Z,39.49
2022-12-19T19:41:58.328Z,39.47
2022-12-19T19:44:29.883Z,39.45
2022-12-19T19:47:00.340Z,39.48
2022-12-19T19:49:30.651Z,39.51
2022-12-19T19:52:03.083Z,39.42
2022-12-19T19:54:33.383Z,39.38
2022-12-19T19:57:03.929Z,39.43
2022-12-19T19:59:34.182Z,39.49
2022-12-19T20:02:04.611Z,39.45
2022-12-19T20:04:36.359Z,39.39
2022-12-19T20:07:07.313Z,39.44
2022-12-19T20:09:37.787Z,39.42
2022-12-19T20:12:08.389Z,39.37
2022-12-19T20:14:38.695Z,39.39
2022-12-19T20:17:09.096Z,39.35
2022-12-19T20:19:40.153Z,39.41
2022-12-19T20:22:10.558Z,39.39
2022-12-19T20:24:41.070Z,39.38
2022-12-19T20:27:11.704Z,39.34
2022-12-19T20:29:42.174Z,39.32
2022-12-19T20:32:14.238Z,39.31
2022-12-19T20:34:44.446Z,39.37
2022-12-19T20:37:15.512Z,39.38
2022-12-19T20:39:45.668Z,39.39
2022-12-19T20:42:16.159Z,39.38
2022-12-19T20:44:46.720Z,39.30
2022-12-19T20:47:17.926Z,39.32
2022-12-19T20:49:48.670Z,39.36
2022-12-19T20:52:20.551Z,39.39
2022-12-19T20:54:51.080Z,39.35
2022-12-19T20:57:21.601Z,39.27
2022-12-19T20:59:52.547Z,39.35
2022-12-19T21:02:23.022Z,39.29
2022-12-19T21:04:53.604Z,39.35
2022-12-19T21:07:24.710Z,39.32
2022-12-19T21:09:55.240Z,39.29
2022-12-19T21:12:25.579Z,39.28
2022-12-19T21:14:55.735Z,39.23
2022-12-19T21:17:26.061Z,39.27
2022-12-19T21:19:56.586Z,39.21
2022-12-19T21:22:26.884Z,39.18
2022-12-19T21:24:57.007Z,39.21
2022-12-19T21:27:27.352Z,39.24
2022-12-19T21:29:57.662Z,39.31
2022-12-19T21:32:28.643Z,39.31
2022-12-19T21:34:59.011Z,39.27
2022-12-19T21:37:31.074Z,39.31
2022-12-19T21:40:01.384Z,39.35
2022-12-19T21:42:31.876Z,39.38
2022-12-19T21:45:02.104Z,39.32
2022-12-19T21:47:32.371Z,39.31
2022-12-19T21:50:02.784Z,39.35
2022-12-19T21:52:33.275Z,39.31
2022-12-19T21:55:03.980Z,39.31
2022-12-19T21:57:36.215Z,39.37
2022-12-19T22:00:07.851Z,39.42
2022-12-19T22:02:38.718Z,39.32
2022-12-19T22:05:09.508Z,39.33
2022-12-19T22:07:39.691Z,39.35
2022-12-19T22:10:10.906Z,39.37
2022-12-19T22:12:41.080Z,39.39
2022-12-19T22:15:11.529Z,39.42
2022-12-19T22:17:43.539Z,39.43
2022-12-19T22:20:13.884Z,39.35
2022-12-19T22:22:44.030Z,39.51
2022-12-19T22:25:14.352Z,39.48
2022-12-19T22:27:44.651Z,39.39
2022-12-19T22:30:35.603Z,39.34
2022-12-19T22:33:06.326Z,39.31
2022-12-19T22:35:36.540Z,39.27
2022-12-19T22:38:06.729Z,39.38
2022-12-19T22:40:36.780Z,39.44
2022-12-19T22:43:06.898Z,39.42
2022-12-19T22:45:37.217Z,39.40
2022-12-19T22:48:07.931Z,39.41
2022-12-19T22:50:38.097Z,39.35
2022-12-19T22:53:12.731Z,39.40
2022-12-19T22:55:40.090Z,39.26
2022-12-19T22:58:10.422Z,39.26
2022-12-19T23:00:40.576Z,39.34
2022-12-19T23:03:10.920Z,39.34
2022-12-19T23:05:42.709Z,39.32
2022-12-19T23:08:13.131Z,39.32
2022-12-19T23:10:43.419Z,39.34
2022-12-19T23:13:13.584Z,39.38
2022-12-19T23:15:43.861Z,39.35
2022-12-19T23:18:14.091Z,39.33
2022-12-19T23:20:44.781Z,39.44
2022-12-19T23:23:15.547Z,40.12
2022-12-19T23:25:45.686Z,40.49
2022-12-19T23:28:15.772Z,40.46
2022-12-19T23:30:46.061Z,40.36
2022-12-19T23:33:16.187Z,40.37
2022-12-19T23:35:46.473Z,40.37
2022-12-19T23:38:16.669Z,40.43
2022-12-19T23:40:46.929Z,40.46
2022-12-19T23:43:17.313Z,40.56
2022-12-19T23:45:47.757Z,40.57
2022-12-19T23:48:18.077Z,40.50
2022-12-19T23:50:48.230Z,40.48
2022-12-19T23:53:18.352Z,40.53
2022-12-19T23:55:51.632Z,40.61
2022-12-19T23:58:24.929Z,40.61
